Time;durP1;ratioP1;P1;durP2;ratioP2;P2;SDS_P1;SDS_P2;PMS_P1;PMS_P2;Temp;Humidity;BMP_temperature;BMP_pressure;BME280_temperature;BME280_humidity;BME280_pressure;Samples;Min_cycle;Max_cycle;Signal;HPM_P1;HPM_P2
2021/12/18 00:02:12;;;;;;;38.20;15.30;;;7.30;99.90;;;;;;5090536;28;20024;-46
2021/12/18 00:04:39;;;;;;;30.77;13.63;;;7.30;99.90;;;;;;5090171;28;20077;-43
2021/12/18 00:07:04;;;;;;;30.27;14.02;;;7.30;99.90;;;;;;5088718;28;20020;-43
2021/12/18 00:09:32;;;;;;;32.15;13.45;;;7.20;99.90;;;;;;5089696;28;20039;-44
2021/12/18 00:12:01;;;;;;;25.75;11.65;;;7.30;99.90;;;;;;5090249;28;20087;-43
2021/12/18 00:14:27;;;;;;;22.10;11.35;;;7.30;99.90;;;;;;5090423;28;20042;-43
2021/12/18 00:16:53;;;;;;;19.33;10.68;;;7.20;99.90;;;;;;5090118;28;20481;-43
2021/12/18 00:19:24;;;;;;;24.50;10.20;;;7.20;99.90;;;;;;5088767;28;20119;-42
2021/12/18 00:21:50;;;;;;;20.50;10.50;;;7.20;99.90;;;;;;5088692;28;20078;-43
2021/12/18 00:24:15;;;;;;;19.42;8.32;;;7.20;99.90;;;;;;5088209;28;20028;-43
2021/12/18 00:26:41;;;;;;;15.13;8.02;;;7.20;99.90;;;;;;5078041;28;20100;-43
2021/12/18 00:29:06;;;;;;;14.93;7.57;;;7.20;99.90;;;;;;5086358;28;20118;-45
2021/12/18 00:31:32;;;;;;;11.80;6.07;;;7.20;99.90;;;;;;5089831;28;20092;-43
2021/12/18 00:33:58;;;;;;;13.90;7.18;;;7.20;99.90;;;;;;5090230;28;20405;-44
2021/12/18 00:36:23;;;;;;;8.30;4.90;;;7.20;99.90;;;;;;5089667;28;20067;-44
2021/12/18 00:38:49;;;;;;;8.50;5.38;;;7.20;99.90;;;;;;5088984;28;20105;-43
2021/12/18 00:41:28;;;;;;;6.68;3.97;;;7.20;99.90;;;;;;5089352;28;20032;-43
2021/12/18 00:44:03;;;;;;;8.20;4.18;;;7.10;99.90;;;;;;5089609;28;20107;-44
2021/12/18 00:46:37;;;;;;;6.97;4.38;;;7.10;99.90;;;;;;5089204;28;20024;-42
2021/12/18 00:49:05;;;;;;;6.57;3.80;;;7.10;99.90;;;;;;5087737;28;20039;-42
2021/12/18 00:51:30;;;;;;;7.97;4.20;;;7.00;99.90;;;;;;5089166;28;20040;-43
2021/12/18 00:53:56;;;;;;;7.03;4.05;;;6.90;99.90;;;;;;5089410;28;20066;-43
2021/12/18 00:56:22;;;;;;;7.47;4.38;;;6.90;99.90;;;;;;5078857;28;20021;-42
2021/12/18 00:58:50;;;;;;;7.50;4.30;;;6.90;99.90;;;;;;5084255;28;20043;-43
2021/12/18 01:01:18;;;;;;;10.00;4.25;;;6.80;99.90;;;;;;5087925;28;20028;-43
2021/12/18 01:03:45;;;;;;;10.07;4.97;;;6.80;99.90;;;;;;5089375;28;20512;-43
2021/12/18 01:06:10;;;;;;;6.95;4.15;;;6.80;99.90;;;;;;5087689;28;20028;-44
2021/12/18 01:08:36;;;;;;;11.50;4.55;;;6.70;99.90;;;;;;5089177;28;20027;-43
2021/12/18 01:13:35;;;;;;;7.65;4.40;;;6.80;99.90;;;;;;5089430;28;20077;-43
2021/12/18 01:16:11;;;;;;;8.45;3.50;;;6.80;99.90;;;;;;5088752;28;20112;-44
2021/12/18 01:24:06;;;;;;;5.95;3.63;;;6.80;99.90;;;;;;5089137;28;20496;-43
2021/12/18 01:26:32;;;;;;;6.53;4.30;;;6.90;99.90;;;;;;5078970;28;20441;-43
2021/12/18 01:28:57;;;;;;;5.25;2.80;;;6.90;99.90;;;;;;5085524;28;20028;-43
2021/12/18 01:31:23;;;;;;;5.93;3.13;;;6.90;99.90;;;;;;5087982;28;20032;-43
2021/12/18 01:33:48;;;;;;;3.97;2.80;;;6.90;99.90;;;;;;5088342;28;20028;-44
2021/12/18 01:36:14;;;;;;;8.10;3.10;;;6.80;99.90;;;;;;5088228;28;20490;-46
2021/12/18 01:38:40;;;;;;;5.43;2.67;;;6.80;99.90;;;;;;5088229;28;20442;-43
2021/12/18 01:41:05;;;;;;;5.53;2.90;;;6.80;99.90;;;;;;5088112;28;20074;-44
2021/12/18 01:46:15;;;;;;;3.38;2.10;;;6.90;99.90;;;;;;5088967;28;20047;-44
2021/12/18 01:54:10;;;;;;;7.70;2.13;;;6.80;99.90;;;;;;5088806;28;20038;-47
2021/12/18 01:56:35;;;;;;;3.55;2.30;;;6.80;99.90;;;;;;5077069;28;20040;-43
2021/12/18 01:59:01;;;;;;;4.75;2.42;;;6.80;99.90;;;;;;5084827;28;20402;-43
2021/12/18 02:01:28;;;;;;;3.47;2.40;;;6.80;99.90;;;;;;5088026;28;20024;-45
2021/12/18 02:03:53;;;;;;;3.72;2.05;;;6.90;99.90;;;;;;5087826;28;20089;-44
2021/12/18 02:06:20;;;;;;;4.72;2.30;;;6.80;99.90;;;;;;5087826;28;20032;-44
2021/12/18 02:08:45;;;;;;;3.25;2.08;;;6.90;99.90;;;;;;5087495;28;20099;-45
2021/12/18 02:14:09;;;;;;;4.18;2.28;;;6.80;99.90;;;;;;5087902;28;20212;-45
2021/12/18 02:22:10;;;;;;;5.30;2.72;;;6.90;99.90;;;;;;5088629;28;20080;-44
2021/12/18 02:24:36;;;;;;;4.63;3.15;;;6.90;99.90;;;;;;5086935;28;20410;-44
2021/12/18 02:27:02;;;;;;;5.40;2.88;;;6.90;99.90;;;;;;5076577;28;20024;-44
2021/12/18 02:29:31;;;;;;;3.97;2.88;;;6.80;99.90;;;;;;5087260;28;20047;-45
2021/12/18 02:31:56;;;;;;;4.95;2.80;;;6.90;99.90;;;;;;5087658;28;20105;-44
2021/12/18 02:34:27;;;;;;;5.90;3.78;;;6.80;99.90;;;;;;5087416;28;20040;-44
2021/12/18 02:36:59;;;;;;;5.80;3.10;;;6.80;99.90;;;;;;5087706;28;20031;-46
2021/12/18 02:42:08;;;;;;;4.05;2.80;;;6.80;99.90;;;;;;5087036;28;20024;-44
2021/12/18 02:44:35;;;;;;;4.18;2.78;;;6.80;99.90;;;;;;5087893;28;20057;-47
2021/12/18 02:47:02;;;;;;;4.68;2.97;;;6.80;99.90;;;;;;5087282;28;20111;-44
2021/12/18 02:49:28;;;;;;;5.97;3.58;;;6.80;99.90;;;;;;5086816;28;20020;-44
2021/12/18 02:51:54;;;;;;;5.00;3.17;;;6.80;99.90;;;;;;5086054;28;20035;-43
2021/12/18 02:54:20;;;;;;;7.35;3.65;;;6.80;99.90;;;;;;5087111;28;20482;-44
2021/12/18 02:56:46;;;;;;;6.03;2.95;;;6.80;99.90;;;;;;5076009;28;20119;-43
2021/12/18 02:59:12;;;;;;;9.25;4.25;;;6.80;99.90;;;;;;5086190;28;20055;-45
2021/12/18 03:01:40;;;;;;;6.90;3.40;;;6.80;99.90;;;;;;5086847;28;20138;-44
2021/12/18 03:04:16;;;;;;;5.45;2.97;;;6.70;99.90;;;;;;5085948;28;20363;-45
2021/12/18 03:06:47;;;;;;;5.75;2.92;;;6.70;99.90;;;;;;5087149;28;20047;-41
2021/12/18 03:09:41;;;;;;;;;;;6.70;99.90;;;;;;5087321;28;20020;-41
2021/12/18 03:19:09;;;;;;;9.90;4.68;;;6.70;99.90;;;;;;5087822;28;20443;-42
2021/12/18 03:23:29;;;;;;;8.35;3.75;;;6.70;99.90;;;;;;5087509;28;20541;-42
2021/12/18 03:25:59;;;;;;;8.75;3.45;;;6.70;99.90;;;;;;5084000;28;20020;-44
2021/12/18 03:28:26;;;;;;;6.28;3.50;;;6.70;99.90;;;;;;5079365;28;20061;-42
2021/12/18 03:30:51;;;;;;;7.43;3.67;;;6.70;99.90;;;;;;5086782;28;20040;-44
2021/12/18 03:33:17;;;;;;;7.20;3.70;;;6.70;99.90;;;;;;5087307;28;20021;-44
2021/12/18 03:35:42;;;;;;;8.05;4.18;;;6.70;99.90;;;;;;5087161;28;20034;-44
2021/12/18 03:38:10;;;;;;;9.40;4.47;;;6.70;99.90;;;;;;5086372;28;20470;-43
2021/12/18 03:40:35;;;;;;;8.48;4.30;;;6.70;99.90;;;;;;5086781;28;20089;-43
2021/12/18 03:43:01;;;;;;;10.70;4.88;;;6.70;99.90;;;;;;5086993;28;20024;-44
2021/12/18 03:45:27;;;;;;;9.18;4.57;;;6.70;99.90;;;;;;5086827;28;20039;-45
2021/12/18 03:47:53;;;;;;;11.98;4.25;;;6.70;99.90;;;;;;5086520;28;20457;-44
2021/12/18 03:50:20;;;;;;;7.13;4.10;;;6.70;99.90;;;;;;5087036;28;20082;-47
2021/12/18 03:52:46;;;;;;;7.75;3.97;;;6.70;99.90;;;;;;5085439;28;20068;-44
2021/12/18 03:55:11;;;;;;;6.38;3.60;;;6.70;99.90;;;;;;5086020;28;20036;-44
2021/12/18 03:57:37;;;;;;;5.47;2.92;;;6.70;99.90;;;;;;5081932;28;20028;-44
2021/12/18 04:00:05;;;;;;;4.25;2.65;;;6.70;99.90;;;;;;5090278;28;20110;-44
2021/12/18 04:02:30;;;;;;;6.00;3.05;;;6.70;99.90;;;;;;5090317;28;20432;-46
2021/12/18 04:04:56;;;;;;;6.43;2.50;;;6.70;99.90;;;;;;5090822;28;20200;-44
2021/12/18 04:07:21;;;;;;;5.13;2.38;;;6.70;99.90;;;;;;5088120;28;20480;-44
2021/12/18 04:09:48;;;;;;;5.88;1.90;;;6.70;99.90;;;;;;5088819;28;20069;-43
2021/12/18 04:12:14;;;;;;;5.65;2.20;;;6.70;99.90;;;;;;5089626;28;20266;-44
2021/12/18 04:14:40;;;;;;;3.25;1.77;;;6.70;99.90;;;;;;5090094;28;20031;-44
2021/12/18 04:17:06;;;;;;;3.42;2.05;;;6.70;99.90;;;;;;5090072;28;20032;-43
2021/12/18 04:19:32;;;;;;;3.80;1.95;;;6.70;99.90;;;;;;5089595;28;20150;-44
2021/12/18 04:21:57;;;;;;;4.05;2.03;;;6.70;99.90;;;;;;5090268;28;20047;-44
2021/12/18 04:24:23;;;;;;;6.05;2.42;;;6.60;99.90;;;;;;5090075;28;20020;-45
2021/12/18 04:26:48;;;;;;;4.63;2.58;;;6.60;99.90;;;;;;5080827;28;20577;-45
2021/12/18 04:29:14;;;;;;;3.95;2.17;;;6.70;99.90;;;;;;5088539;28;20031;-44
2021/12/18 04:31:40;;;;;;;5.70;2.58;;;6.60;99.90;;;;;;5088634;28;20027;-44
2021/12/18 04:34:06;;;;;;;3.25;2.17;;;6.60;99.90;;;;;;5089631;28;20103;-44
2021/12/18 04:36:33;;;;;;;3.05;1.80;;;6.60;99.90;;;;;;5089934;28;20028;-45
2021/12/18 04:38:59;;;;;;;4.20;2.10;;;6.60;99.90;;;;;;5086430;28;20192;-43
2021/12/18 04:41:36;;;;;;;4.25;2.15;;;6.70;99.90;;;;;;5081100;28;20093;-44
2021/12/18 04:44:02;;;;;;;4.13;2.30;;;6.60;99.90;;;;;;5089363;28;20028;-45
2021/12/18 04:46:28;;;;;;;2.60;1.83;;;6.60;99.90;;;;;;5089583;28;20488;-44
2021/12/18 04:48:53;;;;;;;3.88;1.58;;;6.60;99.90;;;;;;5088877;28;20028;-47
2021/12/18 04:51:19;;;;;;;2.80;1.40;;;6.60;99.90;;;;;;5089643;28;20519;-44
2021/12/18 04:53:44;;;;;;;2.88;1.63;;;6.60;99.90;;;;;;5089218;28;20108;-44
2021/12/18 04:56:10;;;;;;;2.45;1.52;;;6.60;99.90;;;;;;5085079;28;20055;-44
2021/12/18 04:58:35;;;;;;;4.20;1.90;;;6.60;99.90;;;;;;5083079;28;20077;-43
2021/12/18 05:01:01;;;;;;;3.30;1.67;;;6.60;99.90;;;;;;5089027;28;20315;-44
2021/12/18 05:03:27;;;;;;;2.58;1.50;;;6.60;99.90;;;;;;5089181;28;20081;-44
2021/12/18 05:05:52;;;;;;;2.50;1.40;;;6.60;99.90;;;;;;5089044;28;20028;-44
2021/12/18 05:08:18;;;;;;;2.53;1.33;;;6.60;99.90;;;;;;5088458;28;20103;-44
2021/12/18 05:10:44;;;;;;;2.65;1.70;;;6.60;99.90;;;;;;5088825;28;20083;-43
2021/12/18 05:13:09;;;;;;;2.38;1.52;;;6.60;99.90;;;;;;5087669;28;20016;-45
2021/12/18 05:15:35;;;;;;;2.95;1.67;;;6.60;99.90;;;;;;5089070;28;20107;-44
2021/12/18 05:18:00;;;;;;;3.00;1.83;;;6.50;99.90;;;;;;5088627;28;20027;-45
2021/12/18 05:20:26;;;;;;;2.70;1.80;;;6.60;99.90;;;;;;5087350;28;20020;-43
2021/12/18 05:22:51;;;;;;;4.07;1.88;;;6.50;99.90;;;;;;5089341;28;20058;-44
2021/12/18 05:25:17;;;;;;;2.53;1.70;;;6.50;99.90;;;;;;5088100;28;20031;-44
2021/12/18 05:27:43;;;;;;;2.25;1.52;;;6.50;99.90;;;;;;5079706;28;20024;-44
2021/12/18 05:30:10;;;;;;;2.20;1.52;;;6.50;99.90;;;;;;5083700;28;20191;-44
2021/12/18 05:32:36;;;;;;;3.10;2.00;;;6.50;99.90;;;;;;5067948;28;20040;-44
2021/12/18 05:35:02;;;;;;;4.05;1.73;;;6.50;99.90;;;;;;5067806;28;20028;-43
2021/12/18 05:37:43;;;;;;;2.22;1.77;;;6.50;99.90;;;;;;5066795;28;20066;-43
2021/12/18 05:40:10;;;;;;;3.35;1.65;;;6.50;99.90;;;;;;5067818;28;20517;-44
2021/12/18 05:42:36;;;;;;;2.38;1.60;;;6.50;99.90;;;;;;5067105;28;20028;-45
2021/12/18 05:45:01;;;;;;;3.55;1.75;;;6.50;99.90;;;;;;5068081;28;20028;-44
2021/12/18 05:47:27;;;;;;;3.35;1.55;;;6.50;99.90;;;;;;5065829;28;20017;-44
2021/12/18 05:49:52;;;;;;;2.92;1.77;;;6.50;99.90;;;;;;5067687;28;20044;-44
2021/12/18 05:52:18;;;;;;;3.95;2.05;;;6.50;99.90;;;;;;5067676;28;20012;-44
2021/12/18 05:54:44;;;;;;;3.65;2.17;;;6.50;99.90;;;;;;5067040;28;20033;-44
2021/12/18 05:57:14;;;;;;;4.53;2.30;;;6.50;99.90;;;;;;5070041;28;20124;-44
2021/12/18 05:59:40;;;;;;;3.75;2.13;;;6.50;99.90;;;;;;5067741;28;20028;-44
2021/12/18 06:02:06;;;;;;;3.45;2.08;;;6.50;99.90;;;;;;5067887;28;20175;-43
2021/12/18 06:04:31;;;;;;;4.40;2.25;;;6.50;99.90;;;;;;5068693;28;20024;-45
2021/12/18 06:07:03;;;;;;;5.13;2.78;;;6.50;99.90;;;;;;5069430;28;20367;-45
2021/12/18 06:09:30;;;;;;;3.67;2.45;;;6.50;99.90;;;;;;5069068;28;20035;-45
2021/12/18 06:11:56;;;;;;;3.25;2.22;;;6.50;99.90;;;;;;5069437;28;20040;-44
2021/12/18 06:14:22;;;;;;;3.92;2.72;;;6.50;99.90;;;;;;5069813;28;20024;-44
2021/12/18 06:16:47;;;;;;;6.57;2.35;;;6.50;99.90;;;;;;5068577;28;20021;-48
2021/12/18 06:19:13;;;;;;;3.60;2.15;;;6.40;99.90;;;;;;5068205;28;20039;-44
2021/12/18 06:21:38;;;;;;;5.22;2.85;;;6.50;99.90;;;;;;5069193;28;20058;-45
2021/12/18 06:24:04;;;;;;;6.65;2.92;;;6.40;99.90;;;;;;5068987;28;20386;-44
2021/12/18 06:26:30;;;;;;;3.53;2.28;;;6.50;99.90;;;;;;5076858;28;20077;-44
2021/12/18 06:28:55;;;;;;;4.10;2.50;;;6.40;99.90;;;;;;5085502;28;20444;-47
2021/12/18 06:31:21;;;;;;;5.68;2.92;;;6.50;99.90;;;;;;5089546;28;20085;-47
2021/12/18 06:33:47;;;;;;;6.85;3.17;;;6.40;99.90;;;;;;5089512;28;20016;-44
2021/12/18 06:36:12;;;;;;;5.35;2.83;;;6.40;99.90;;;;;;5089162;28;20050;-45
2021/12/18 06:38:38;;;;;;;6.15;3.55;;;6.40;99.90;;;;;;5088428;28;20477;-44
2021/12/18 06:41:03;;;;;;;5.65;2.80;;;6.40;99.90;;;;;;5089199;28;20073;-44
2021/12/18 06:43:29;;;;;;;6.10;3.22;;;6.40;99.90;;;;;;5089343;28;20031;-45
2021/12/18 06:45:54;;;;;;;5.88;3.35;;;6.40;99.90;;;;;;5089188;28;20085;-46
2021/12/18 06:48:20;;;;;;;5.80;3.50;;;6.40;99.90;;;;;;5088775;28;20355;-44
2021/12/18 06:50:45;;;;;;;5.07;3.05;;;6.40;99.90;;;;;;5078840;28;20103;-44
2021/12/18 06:53:11;;;;;;;5.72;3.13;;;6.40;99.90;;;;;;5088435;28;20569;-45
2021/12/18 06:55:37;;;;;;;6.75;3.58;;;6.50;99.90;;;;;;5082411;28;20693;-44
2021/12/18 06:58:02;;;;;;;5.13;3.00;;;6.40;99.90;;;;;;5077775;28;20075;-47
2021/12/18 07:00:28;;;;;;;5.28;3.85;;;6.50;99.90;;;;;;5089148;28;20028;-44
2021/12/18 07:02:54;;;;;;;6.65;3.83;;;6.40;99.90;;;;;;5085938;28;20020;-46
2021/12/18 07:05:20;;;;;;;6.38;3.40;;;6.50;99.90;;;;;;5080714;28;20545;-48
2021/12/18 07:07:46;;;;;;;7.38;3.88;;;6.50;99.90;;;;;;5086487;28;20062;-44
2021/12/18 07:10:13;;;;;;;6.75;3.72;;;6.50;99.90;;;;;;5080685;28;20059;-45
2021/12/18 07:12:39;;;;;;;4.80;3.17;;;6.50;99.90;;;;;;5086817;28;20676;-44
2021/12/18 07:15:07;;;;;;;6.13;3.35;;;6.50;99.90;;;;;;5080594;28;20042;-46
2021/12/18 07:17:32;;;;;;;8.77;3.85;;;6.50;99.90;;;;;;5087108;28;20023;-45
2021/12/18 07:19:58;;;;;;;6.60;3.80;;;6.50;99.90;;;;;;5080332;28;20028;-44
2021/12/18 07:22:23;;;;;;;8.15;3.72;;;6.50;99.90;;;;;;5089283;28;20039;-45
2021/12/18 07:24:49;;;;;;;6.28;4.00;;;6.50;99.90;;;;;;5088910;28;20035;-46
2021/12/18 07:27:15;;;;;;;9.40;4.07;;;6.60;99.90;;;;;;5088095;28;20020;-45
2021/12/18 07:29:40;;;;;;;8.73;4.47;;;6.50;99.90;;;;;;5090169;28;20028;-44
2021/12/18 07:32:06;;;;;;;8.15;4.35;;;6.60;99.90;;;;;;5090644;28;20039;-44
2021/12/18 07:34:32;;;;;;;7.90;3.95;;;6.60;99.90;;;;;;5080156;28;20017;-43
2021/12/18 07:36:58;;;;;;;9.88;4.50;;;6.60;99.90;;;;;;5090263;28;20104;-43
2021/12/18 07:39:23;;;;;;;8.90;4.00;;;6.60;99.90;;;;;;5090849;28;20020;-44
2021/12/18 07:41:49;;;;;;;8.00;3.85;;;6.60;99.90;;;;;;5092836;28;20034;-44
2021/12/18 07:44:14;;;;;;;10.43;4.45;;;6.60;99.90;;;;;;5092716;28;20080;-43
2021/12/18 07:46:40;;;;;;;8.82;4.55;;;6.60;99.90;;;;;;5092658;28;20078;-45
2021/12/18 07:49:07;;;;;;;10.43;4.40;;;6.70;99.90;;;;;;5091425;28;20036;-44
2021/12/18 07:51:33;;;;;;;9.35;4.32;;;6.60;99.90;;;;;;5091206;28;20024;-43
2021/12/18 07:53:59;;;;;;;9.40;4.40;;;6.70;99.90;;;;;;5092270;28;20123;-43
2021/12/18 07:56:25;;;;;;;9.95;4.22;;;6.70;99.90;;;;;;5084988;28;20028;-45
2021/12/18 07:58:52;;;;;;;10.00;4.75;;;6.70;99.90;;;;;;5083357;28;20028;-44
2021/12/18 08:01:18;;;;;;;9.90;4.90;;;6.70;99.90;;;;;;5092307;28;20028;-43
2021/12/18 08:03:43;;;;;;;11.93;4.78;;;6.70;99.90;;;;;;5091932;28;20051;-43
2021/12/18 08:06:09;;;;;;;10.27;4.60;;;6.70;99.90;;;;;;5092549;28;20028;-43
2021/12/18 08:08:35;;;;;;;10.85;4.28;;;6.70;99.90;;;;;;5091433;28;20099;-45
2021/12/18 08:11:01;;;;;;;10.05;4.35;;;6.70;99.90;;;;;;5091969;28;20032;-43
2021/12/18 08:13:26;;;;;;;9.98;4.43;;;6.60;99.90;;;;;;5079498;28;20520;-43
2021/12/18 08:15:52;;;;;;;10.65;4.70;;;6.70;99.90;;;;;;5071808;28;20042;-43
2021/12/18 08:18:17;;;;;;;11.02;4.95;;;6.70;99.90;;;;;;5070850;28;20043;-43
2021/12/18 08:20:43;;;;;;;12.98;5.40;;;6.70;99.90;;;;;;5071331;28;20094;-42
2021/12/18 08:23:14;;;;;;;12.68;4.45;;;6.70;99.90;;;;;;5069915;28;20040;-42
2021/12/18 08:25:40;;;;;;;13.70;5.30;;;6.70;99.90;;;;;;5070908;28;20104;-45
2021/12/18 08:28:06;;;;;;;17.23;6.45;;;6.70;99.90;;;;;;5083806;28;20536;-43
2021/12/18 08:30:34;;;;;;;16.13;6.50;;;6.70;99.90;;;;;;5075960;28;20068;-45
2021/12/18 08:32:59;;;;;;;16.52;7.72;;;6.80;99.90;;;;;;5084548;28;20063;-42
2021/12/18 08:35:26;;;;;;;18.60;7.03;;;6.80;99.90;;;;;;5091717;28;20064;-43
2021/12/18 08:37:53;;;;;;;14.75;7.10;;;6.80;99.90;;;;;;5090593;28;20085;-43
2021/12/18 08:40:20;;;;;;;23.30;8.50;;;6.80;99.90;;;;;;5090728;28;20107;-43
2021/12/18 08:42:45;;;;;;;18.67;7.93;;;6.80;99.90;;;;;;5091029;28;20028;-44
2021/12/18 08:45:16;;;;;;;19.30;8.60;;;6.80;99.90;;;;;;5091056;28;20028;-44
2021/12/18 08:47:42;;;;;;;18.27;8.18;;;6.70;99.90;;;;;;5090097;28;20020;-44
2021/12/18 08:50:10;;;;;;;20.15;8.88;;;6.80;99.90;;;;;;5090470;28;20642;-43
2021/12/18 08:52:37;;;;;;;25.23;9.38;;;6.80;99.90;;;;;;5089571;28;20188;-44
2021/12/18 08:55:04;;;;;;;20.88;8.35;;;6.70;99.90;;;;;;5089301;28;20031;-42
2021/12/18 08:57:30;;;;;;;17.20;8.23;;;6.80;99.90;;;;;;5076094;28;20512;-44
2021/12/18 08:59:56;;;;;;;19.45;8.60;;;6.80;99.90;;;;;;5085629;28;20202;-43
2021/12/18 09:02:21;;;;;;;19.40;9.18;;;6.90;99.90;;;;;;5078551;28;20175;-44
2021/12/18 09:04:48;;;;;;;20.23;9.15;;;6.90;99.90;;;;;;5067376;28;20083;-43
2021/12/18 09:07:13;;;;;;;22.67;9.45;;;6.90;99.90;;;;;;5070732;28;20246;-43
2021/12/18 09:09:39;;;;;;;22.45;8.55;;;7.00;99.90;;;;;;5081493;28;20394;-43
2021/12/18 09:12:06;;;;;;;20.08;8.60;;;7.00;99.90;;;;;;5088908;28;20465;-43
2021/12/18 09:14:32;;;;;;;14.68;7.88;;;7.00;99.90;;;;;;5088403;28;20157;-43
2021/12/18 09:16:58;;;;;;;20.38;8.15;;;7.00;99.90;;;;;;5088867;28;20233;-43
2021/12/18 09:19:24;;;;;;;18.73;8.25;;;7.00;99.90;;;;;;5085253;28;20031;-43
2021/12/18 09:21:49;;;;;;;16.75;8.10;;;7.00;99.90;;;;;;5088415;28;20032;-42
2021/12/18 09:24:15;;;;;;;17.50;8.30;;;7.10;99.90;;;;;;5088702;28;20369;-42
2021/12/18 09:26:41;;;;;;;16.80;7.65;;;7.10;99.90;;;;;;5071819;28;20116;-46
2021/12/18 09:29:06;;;;;;;16.23;7.68;;;7.10;99.90;;;;;;5049730;28;20025;-43
2021/12/18 09:31:32;;;;;;;15.25;7.90;;;7.10;99.90;;;;;;5048559;28;20091;-42
2021/12/18 09:33:57;;;;;;;15.57;7.28;;;7.10;99.90;;;;;;5057318;28;20107;-43
2021/12/18 09:36:23;;;;;;;14.65;7.90;;;7.10;99.90;;;;;;5067618;28;20417;-42
2021/12/18 09:38:49;;;;;;;15.23;7.05;;;7.20;99.90;;;;;;5066845;28;20043;-43
2021/12/18 09:41:14;;;;;;;13.32;7.45;;;7.20;99.90;;;;;;5067235;28;20033;-43
2021/12/18 09:43:41;;;;;;;10.90;6.30;;;7.20;99.90;;;;;;5067029;28;20110;-45
2021/12/18 09:46:09;;;;;;;12.07;6.70;;;7.20;99.90;;;;;;5066996;28;20062;-42
2021/12/18 09:48:40;;;;;;;14.60;5.87;;;7.20;99.90;;;;;;5066606;28;20057;-42
2021/12/18 09:51:11;;;;;;;13.60;7.18;;;7.20;99.90;;;;;;5067883;28;20033;-42
2021/12/18 09:53:38;;;;;;;10.35;4.93;;;7.20;99.90;;;;;;5067364;28;20024;-42
2021/12/18 09:56:04;;;;;;;12.43;5.20;;;7.20;99.90;;;;;;5071945;28;20016;-42
2021/12/18 09:58:31;;;;;;;8.70;4.93;;;7.20;99.90;;;;;;5078900;28;20130;-43
2021/12/18 10:00:56;;;;;;;10.32;4.57;;;7.30;99.90;;;;;;5087443;28;20496;-42
2021/12/18 10:03:38;;;;;;;7.57;4.40;;;7.20;99.90;;;;;;5087103;28;20020;-43
2021/12/18 10:06:36;;;;;;;7.47;4.10;;;7.30;99.90;;;;;;5087393;28;20032;-43
2021/12/18 10:09:11;;;;;;;8.15;4.32;;;7.20;99.90;;;;;;5086994;28;20031;-42
2021/12/18 10:11:56;;;;;;;9.65;4.13;;;7.20;99.90;;;;;;5087109;28;20012;-45
2021/12/18 10:14:44;;;;;;;9.15;4.47;;;7.20;99.90;;;;;;5086030;28;20077;-43
2021/12/18 10:17:27;;;;;;;7.63;3.75;;;7.20;99.90;;;;;;5086368;28;20103;-42
2021/12/18 10:20:14;;;;;;;8.40;3.67;;;7.30;99.90;;;;;;5081997;28;20015;-43
2021/12/18 10:22:51;;;;;;;7.00;3.83;;;7.30;99.90;;;;;;5073483;28;20024;-43
2021/12/18 10:25:42;;;;;;;10.73;4.20;;;7.20;99.90;;;;;;5073995;28;20067;-43
2021/12/18 10:28:15;;;;;;;9.73;3.58;;;7.30;99.90;;;;;;5062286;28;20029;-43
2021/12/18 10:30:59;;;;;;;5.50;3.08;;;7.30;99.90;;;;;;5060609;28;20586;-43
2021/12/18 10:33:29;;;;;;;9.20;3.30;;;7.40;99.90;;;;;;5046446;28;20017;-43
2021/12/18 10:35:57;;;;;;;4.87;2.67;;;7.40;99.90;;;;;;5046484;28;20033;-43
2021/12/18 10:38:48;;;;;;;4.45;2.63;;;7.40;99.90;;;;;;5045687;28;20037;-43
2021/12/18 10:41:32;;;;;;;7.72;2.85;;;7.40;99.90;;;;;;5071643;28;20475;-44
2021/12/18 10:44:03;;;;;;;7.22;3.10;;;7.40;99.90;;;;;;5084113;28;20032;-42
2021/12/18 10:46:31;;;;;;;5.38;2.75;;;7.40;99.90;;;;;;5086342;28;20055;-43
2021/12/18 10:49:12;;;;;;;7.97;2.72;;;7.50;99.90;;;;;;5086045;28;20024;-43
2021/12/18 10:51:40;;;;;;;4.68;2.55;;;7.40;99.90;;;;;;5079632;28;20042;-44
2021/12/18 10:54:14;;;;;;;3.90;2.35;;;7.50;99.90;;;;;;5066694;28;20238;-43
2021/12/18 10:56:43;;;;;;;4.57;2.67;;;7.50;99.90;;;;;;5065742;28;20024;-43
2021/12/18 10:59:36;;;;;;;5.15;2.78;;;7.60;99.90;;;;;;5065966;28;20133;-44
2021/12/18 11:02:04;;;;;;;6.35;2.90;;;7.50;99.90;;;;;;5064865;28;20109;-43
2021/12/18 11:04:35;;;;;;;4.57;2.83;;;7.60;99.90;;;;;;5068415;28;20033;-43
2021/12/18 11:07:21;;;;;;;4.72;2.58;;;7.60;99.90;;;;;;5068396;28;20020;-43
2021/12/18 11:10:13;;;;;;;5.78;3.20;;;7.60;99.90;;;;;;5069660;28;20024;-43
2021/12/18 11:15:25;;;;;;;6.45;3.03;;;7.60;99.90;;;;;;5047074;28;20068;-45
2021/12/18 11:17:51;;;;;;;5.35;3.08;;;7.70;99.90;;;;;;5070082;28;20383;-44
2021/12/18 11:20:17;;;;;;;5.63;2.70;;;7.70;99.90;;;;;;5070799;28;20017;-46
2021/12/18 11:22:43;;;;;;;5.63;2.90;;;7.70;99.90;;;;;;5070598;28;20082;-43
2021/12/18 11:25:11;;;;;;;3.70;2.42;;;7.70;99.90;;;;;;5070991;28;20032;-43
2021/12/18 11:27:37;;;;;;;4.53;2.70;;;7.70;99.90;;;;;;5078292;28;20017;-43
2021/12/18 11:30:12;;;;;;;5.72;2.55;;;7.70;99.90;;;;;;5089651;28;20077;-43
2021/12/18 11:32:44;;;;;;;8.15;2.85;;;7.70;99.90;;;;;;5089495;28;20031;-43
2021/12/18 11:35:16;;;;;;;4.03;2.60;;;7.80;99.90;;;;;;5091344;28;20170;-44
2021/12/18 11:38:15;;;;;;;4.75;2.95;;;7.80;99.90;;;;;;5091068;28;20039;-44
2021/12/18 11:40:42;;;;;;;4.63;2.95;;;7.80;99.90;;;;;;5088717;28;20130;-44
2021/12/18 11:43:28;;;;;;;6.30;3.22;;;7.90;99.90;;;;;;5088519;28;20054;-43
2021/12/18 11:45:54;;;;;;;5.57;2.92;;;7.80;99.90;;;;;;5060138;28;20083;-44
2021/12/18 11:48:20;;;;;;;3.85;2.58;;;7.80;99.90;;;;;;5089964;28;20035;-44
2021/12/18 11:50:47;;;;;;;3.03;2.47;;;7.80;99.90;;;;;;5089884;28;20420;-44
2021/12/18 11:53:30;;;;;;;5.40;2.65;;;7.80;99.90;;;;;;5088496;28;20025;-43
2021/12/18 11:56:00;;;;;;;3.85;2.47;;;7.80;99.90;;;;;;5085627;28;21328;-43
2021/12/18 11:58:34;;;;;;;6.57;2.40;;;7.80;99.90;;;;;;5079531;28;20024;-43
2021/12/18 12:01:02;;;;;;;4.00;2.42;;;7.90;99.90;;;;;;5088373;28;20020;-43
2021/12/18 12:03:28;;;;;;;3.80;2.13;;;7.80;99.90;;;;;;5088334;28;20066;-43
2021/12/18 12:05:55;;;;;;;3.42;2.00;;;7.80;99.90;;;;;;5088565;28;20387;-44
2021/12/18 12:08:38;;;;;;;3.42;2.28;;;7.80;99.90;;;;;;5088045;28;20031;-44
2021/12/18 12:11:15;;;;;;;4.13;2.33;;;7.80;99.90;;;;;;5082740;28;20078;-43
2021/12/18 12:14:06;;;;;;;3.40;2.42;;;7.80;99.90;;;;;;5078264;28;20077;-44
2021/12/18 12:16:44;;;;;;;3.05;2.22;;;7.80;99.90;;;;;;5068758;28;20437;-44
2021/12/18 12:19:35;;;;;;;3.47;2.05;;;7.80;99.90;;;;;;5068453;28;20398;-44
2021/12/18 12:22:03;;;;;;;6.38;2.90;;;7.90;99.90;;;;;;5061003;28;20052;-43
2021/12/18 12:24:31;;;;;;;5.32;2.50;;;7.90;99.90;;;;;;5069670;28;20029;-43
2021/12/18 12:27:28;;;;;;;4.32;2.42;;;7.90;99.90;;;;;;5068587;28;20025;-43
2021/12/18 12:29:54;;;;;;;4.57;2.50;;;7.80;99.90;;;;;;5070894;28;20410;-43
2021/12/18 12:32:20;;;;;;;3.72;2.70;;;7.80;99.90;;;;;;5069260;28;20535;-42
2021/12/18 12:35:06;;;;;;;5.43;2.88;;;7.80;99.90;;;;;;5067028;28;20095;-44
2021/12/18 12:37:38;;;;;;;6.07;2.95;;;7.80;99.90;;;;;;5065916;28;20340;-43
2021/12/18 12:40:06;;;;;;;3.78;2.17;;;7.80;99.90;;;;;;5065119;28;20437;-43
2021/12/18 12:42:33;;;;;;;6.13;2.72;;;7.80;99.90;;;;;;5067111;28;20033;-44
2021/12/18 12:45:07;;;;;;;4.30;2.70;;;7.90;99.90;;;;;;5063524;28;20025;-43
2021/12/18 12:47:33;;;;;;;3.58;2.10;;;7.90;99.90;;;;;;5063192;28;20478;-43
2021/12/18 12:50:25;;;;;;;3.97;2.33;;;7.90;99.90;;;;;;5067411;28;20028;-43
2021/12/18 12:53:01;;;;;;;3.90;2.50;;;7.90;99.90;;;;;;5068619;28;20025;-43
2021/12/18 12:55:50;;;;;;;4.07;2.00;;;7.80;99.90;;;;;;5051539;28;20117;-43
2021/12/18 12:58:18;;;;;;;3.72;2.35;;;7.80;99.90;;;;;;5079439;28;20522;-43
2021/12/18 13:00:45;;;;;;;4.35;2.40;;;7.80;99.90;;;;;;5089552;28;20641;-43
2021/12/18 13:03:18;;;;;;;4.22;2.28;;;7.80;99.90;;;;;;5104986;28;20424;-43
2021/12/18 13:06:05;;;;;;;3.25;2.10;;;7.80;99.90;;;;;;5089280;28;20016;-43
2021/12/18 13:08:33;;;;;;;5.03;2.13;;;7.70;99.90;;;;;;5087456;28;20496;-44
2021/12/18 13:11:00;;;;;;;6.05;2.58;;;7.70;99.90;;;;;;5089406;28;20115;-45
2021/12/18 13:13:29;;;;;;;3.67;2.40;;;7.70;99.90;;;;;;5088955;28;20266;-43
2021/12/18 13:16:07;;;;;;;3.58;2.13;;;7.80;99.90;;;;;;5088943;28;20107;-43
2021/12/18 13:18:42;;;;;;;5.25;2.33;;;7.80;99.90;;;;;;5082768;28;20520;-43
2021/12/18 13:21:14;;;;;;;5.38;2.53;;;7.70;99.90;;;;;;5065340;28;20032;-44
2021/12/18 13:23:45;;;;;;;4.10;2.10;;;7.70;99.90;;;;;;5068249;28;20028;-44
2021/12/18 13:26:33;;;;;;;3.97;2.42;;;7.70;99.90;;;;;;5071083;28;20032;-42
2021/12/18 13:29:02;;;;;;;5.18;2.80;;;7.80;99.90;;;;;;5078186;28;20043;-44
2021/12/18 13:31:33;;;;;;;3.53;2.20;;;7.80;99.90;;;;;;5069810;28;20031;-43
2021/12/18 13:34:09;;;;;;;5.22;2.47;;;7.70;99.90;;;;;;5068192;28;20538;-45
2021/12/18 13:36:44;;;;;;;4.03;2.38;;;7.70;99.90;;;;;;5068434;28;20121;-43
2021/12/18 13:39:13;;;;;;;4.55;2.58;;;7.80;99.90;;;;;;5067355;28;20280;-43
2021/12/18 13:41:39;;;;;;;3.75;2.17;;;7.70;99.90;;;;;;5067850;28;20036;-43
2021/12/18 13:44:05;;;;;;;4.38;2.58;;;7.80;99.90;;;;;;5069124;28;20040;-44